createdAt,value
2024-01-20T00:00:24.228Z,0.62
2024-01-20T00:01:24.113Z,0.59
2024-01-20T00:02:24.178Z,0.59
2024-01-20T00:03:24.252Z,0.63
2024-01-20T00:04:24.351Z,0.71
2024-01-20T00:05:24.548Z,0.78
2024-01-20T00:06:24.303Z,0.91
2024-01-20T00:07:24.305Z,1.01
2024-01-20T00:08:24.367Z,1.23
2024-01-20T00:09:29.005Z,1.49
2024-01-20T00:10:25.373Z,1.50
2024-01-20T00:11:24.413Z,1.57
2024-01-20T00:12:24.364Z,1.79
2024-01-20T00:13:24.388Z,2.28
2024-01-20T00:14:24.436Z,3.32
2024-01-20T00:15:24.380Z,3.84
2024-01-20T00:16:24.383Z,3.87
2024-01-20T00:17:27.146Z,5.96
2024-01-20T00:18:24.504Z,5.99
2024-01-20T00:19:24.389Z,6.00
2024-01-20T00:20:24.418Z,4.96
2024-01-20T00:21:24.389Z,3.98
2024-01-20T00:22:24.383Z,3.52
2024-01-20T00:23:24.414Z,3.02
2024-01-20T00:24:24.380Z,2.07
2024-01-20T00:25:24.377Z,1.55
2024-01-20T00:26:24.409Z,1.37
2024-01-20T00:27:24.427Z,1.21
2024-01-20T00:28:24.430Z,1.10
2024-01-20T00:29:24.411Z,1.13
2024-01-20T00:30:24.421Z,1.12
2024-01-20T00:31:24.428Z,0.97
2024-01-20T00:32:24.481Z,0.89
2024-01-20T00:33:24.530Z,0.80
2024-01-20T00:34:24.425Z,0.69
2024-01-20T00:35:24.460Z,0.61
2024-01-20T00:36:24.420Z,0.60
2024-01-20T00:37:24.429Z,0.54
2024-01-20T00:38:24.520Z,0.52
2024-01-20T00:39:24.435Z,0.52
2024-01-20T00:40:24.432Z,0.50
2024-01-20T00:41:24.483Z,0.58
2024-01-20T00:42:24.460Z,0.71
2024-01-20T00:43:24.454Z,0.85
2024-01-20T00:44:24.441Z,1.00
2024-01-20T00:45:24.468Z,1.00
2024-01-20T00:46:24.457Z,0.97
2024-01-20T00:47:24.492Z,1.03
2024-01-20T00:48:24.483Z,1.14
2024-01-20T00:49:24.473Z,1.26
2024-01-20T00:50:24.552Z,1.44
2024-01-20T00:51:25.483Z,1.44
2024-01-20T00:52:24.512Z,1.48
2024-01-20T00:53:24.536Z,1.80
2024-01-20T00:54:24.498Z,2.82
2024-01-20T00:55:24.510Z,5.27
2024-01-20T00:56:24.527Z,6.57
2024-01-20T00:57:24.501Z,7.21
2024-01-20T00:58:24.512Z,6.82
2024-01-20T00:59:24.495Z,7.49
2024-01-20T01:00:24.515Z,8.11
2024-01-20T01:01:24.573Z,8.27
2024-01-20T01:02:24.738Z,6.21
2024-01-20T01:03:24.714Z,4.68
2024-01-20T01:04:24.755Z,3.05
2024-01-20T01:05:24.855Z,2.05
2024-01-20T01:06:24.995Z,1.50
2024-01-20T01:07:24.910Z,1.17
2024-01-20T01:08:25.080Z,1.30
2024-01-20T01:09:25.061Z,1.19
2024-01-20T01:10:25.083Z,1.12
2024-01-20T01:11:25.128Z,1.04
2024-01-20T01:12:25.109Z,0.95
2024-01-20T01:13:25.132Z,0.78
2024-01-20T01:14:25.202Z,0.68
2024-01-20T01:15:25.177Z,0.57
2024-01-20T01:16:25.236Z,0.50
2024-01-20T01:17:25.310Z,0.51
2024-01-20T01:18:25.279Z,0.50
2024-01-20T01:19:25.320Z,0.51
2024-01-20T01:20:25.467Z,0.59
2024-01-20T01:21:25.437Z,0.83
2024-01-20T01:22:25.470Z,1.08
2024-01-20T01:23:25.593Z,1.34
2024-01-20T01:24:25.591Z,1.79
2024-01-20T01:25:25.652Z,2.58
2024-01-20T01:26:27.658Z,3.79
2024-01-20T01:27:25.815Z,5.64
2024-01-20T01:28:25.718Z,7.84
2024-01-20T01:29:25.835Z,10.45
2024-01-20T01:30:25.716Z,13.35
2024-01-20T01:31:25.721Z,17.01
2024-01-20T01:32:25.825Z,19.98
2024-01-20T01:33:25.782Z,23.73
2024-01-20T01:34:25.729Z,22.51
2024-01-20T01:35:25.751Z,17.80
2024-01-20T01:36:25.738Z,15.00
2024-01-20T01:37:25.747Z,12.91
2024-01-20T01:38:25.752Z,9.61
2024-01-20T01:39:25.778Z,8.90
2024-01-20T01:40:25.752Z,8.73
2024-01-20T01:41:25.741Z,8.00
2024-01-20T01:42:25.760Z,7.13
2024-01-20T01:43:25.750Z,7.39
2024-01-20T01:44:25.762Z,7.95
2024-01-20T01:45:25.744Z,8.67
2024-01-20T01:46:25.767Z,9.34
2024-01-20T01:47:25.772Z,10.06
2024-01-20T01:48:25.791Z,11.09
2024-01-20T01:49:25.782Z,11.92
2024-01-20T01:50:25.843Z,13.13
2024-01-20T01:51:25.769Z,14.76
2024-01-20T01:52:25.776Z,16.13
2024-01-20T01:53:25.769Z,19.54
2024-01-20T01:54:25.926Z,19.93
2024-01-20T01:55:25.800Z,20.99
2024-01-20T01:56:25.796Z,21.82
2024-01-20T01:57:25.859Z,21.28
2024-01-20T01:58:25.795Z,21.55
2024-01-20T01:59:25.821Z,21.09
2024-01-20T02:00:25.794Z,22.40
2024-01-20T02:01:25.790Z,24.29
2024-01-20T02:02:25.780Z,27.48
2024-01-20T02:03:25.899Z,29.66
2024-01-20T02:04:25.836Z,31.73
2024-01-20T02:05:25.813Z,33.32
2024-01-20T02:06:25.822Z,34.24
2024-01-20T02:07:25.795Z,29.59
2024-01-20T02:08:25.807Z,31.51
2024-01-20T02:09:25.839Z,32.63
2024-01-20T02:10:25.806Z,31.90
2024-01-20T02:11:25.796Z,30.69
2024-01-20T02:12:25.826Z,30.15
2024-01-20T02:13:25.797Z,31.12
2024-01-20T02:14:25.826Z,32.63
2024-01-20T02:15:25.895Z,36.13
2024-01-20T02:16:25.880Z,42.49
2024-01-20T02:17:25.926Z,38.79
2024-01-20T02:18:26.104Z,40.85
2024-01-20T02:19:26.050Z,43.09
2024-01-20T02:20:26.102Z,43.39
2024-01-20T02:21:26.200Z,41.36
2024-01-20T02:22:26.198Z,36.16
2024-01-20T02:23:26.217Z,35.85
2024-01-20T02:24:26.275Z,37.44
2024-01-20T02:25:26.267Z,38.23
2024-01-20T02:26:26.270Z,38.48
2024-01-20T02:27:26.341Z,38.43
2024-01-20T02:28:26.323Z,41.32
2024-01-20T02:29:26.293Z,42.22
2024-01-20T02:30:26.397Z,44.73
2024-01-20T02:31:26.437Z,44.87
2024-01-20T02:32:26.500Z,41.40
2024-01-20T02:33:26.627Z,35.81
2024-01-20T02:34:26.707Z,30.79
2024-01-20T02:35:26.626Z,25.75
2024-01-20T02:36:26.684Z,21.62
2024-01-20T02:37:26.680Z,19.14
2024-01-20T02:38:26.730Z,17.39
2024-01-20T02:39:26.853Z,16.47
2024-01-20T02:40:26.814Z,16.62
2024-01-20T02:41:26.878Z,16.52
2024-01-20T02:42:26.985Z,16.75
2024-01-20T02:43:26.920Z,17.97
2024-01-20T02:44:26.967Z,19.91
2024-01-20T02:45:27.048Z,21.54
2024-01-20T02:46:27.029Z,21.90
2024-01-20T02:47:27.073Z,22.33
2024-01-20T02:48:27.186Z,24.34
2024-01-20T02:49:27.277Z,26.42
2024-01-20T02:50:27.143Z,27.21
2024-01-20T02:51:27.226Z,27.62
2024-01-20T02:52:27.237Z,27.14
2024-01-20T02:53:27.276Z,28.38
2024-01-20T02:54:27.402Z,28.80
2024-01-20T02:55:27.367Z,28.10
2024-01-20T02:56:27.420Z,29.49
2024-01-20T02:57:27.531Z,31.58
2024-01-20T02:58:27.492Z,31.78
2024-01-20T02:59:27.561Z,31.99
2024-01-20T03:00:27.613Z,31.00
2024-01-20T03:01:27.622Z,30.18
2024-01-20T03:02:27.636Z,31.70
2024-01-20T03:03:27.798Z,34.87
2024-01-20T03:04:27.845Z,42.64
2024-01-20T03:05:27.819Z,59.80
2024-01-20T03:06:27.829Z,95.32
2024-01-20T03:07:27.887Z,122.80
2024-01-20T03:08:27.915Z,141.71
2024-01-20T03:09:28.053Z,138.26
2024-01-20T03:10:28.052Z,115.57
2024-01-20T03:11:28.120Z,104.10
2024-01-20T03:12:28.210Z,85.97
2024-01-20T03:13:28.213Z,78.54
2024-01-20T03:14:28.237Z,74.25
2024-01-20T03:15:28.290Z,62.07
2024-01-20T03:16:28.301Z,49.52
2024-01-20T03:17:28.325Z,41.31
2024-01-20T03:18:28.352Z,34.62
2024-01-20T03:19:28.366Z,28.82
2024-01-20T03:20:28.384Z,23.48
2024-01-20T03:21:28.592Z,19.22
2024-01-20T03:22:28.518Z,16.67
2024-01-20T03:23:28.556Z,14.31
2024-01-20T03:24:28.634Z,12.38
2024-01-20T03:25:28.678Z,10.71
2024-01-20T03:26:28.799Z,9.55
2024-01-20T03:27:28.839Z,8.80
2024-01-20T03:28:28.797Z,8.39
2024-01-20T03:29:28.838Z,8.30
2024-01-20T03:30:28.929Z,7.66
2024-01-20T03:31:28.973Z,6.81
2024-01-20T03:32:29.048Z,6.22
2024-01-20T03:33:29.155Z,5.48
2024-01-20T03:34:29.281Z,5.09
2024-01-20T03:35:29.158Z,4.56
2024-01-20T03:36:29.244Z,4.32
2024-01-20T03:37:29.232Z,4.13
2024-01-20T03:38:29.270Z,4.01
2024-01-20T03:39:29.375Z,4.14
2024-01-20T03:40:30.054Z,4.24
2024-01-20T03:41:29.386Z,4.38
2024-01-20T03:42:29.488Z,4.55
2024-01-20T03:43:29.424Z,4.22
2024-01-20T03:44:29.480Z,3.88
2024-01-20T03:45:29.638Z,3.61
2024-01-20T03:46:29.581Z,3.53
2024-01-20T03:47:31.050Z,3.48
2024-01-20T03:48:29.732Z,3.71
2024-01-20T03:49:29.788Z,4.44
2024-01-20T03:50:29.843Z,6.06
2024-01-20T03:51:29.925Z,9.26
2024-01-20T03:52:29.909Z,15.55
2024-01-20T03:53:29.959Z,23.63
2024-01-20T03:54:30.091Z,36.31
2024-01-20T03:55:30.037Z,61.39
2024-01-20T03:56:30.067Z,104.78
2024-01-20T03:57:30.209Z,192.97
2024-01-20T03:58:30.123Z,305.46
2024-01-20T03:59:30.147Z,358.11
2024-01-20T04:00:30.244Z,300.91
2024-01-20T04:01:30.200Z,251.94
2024-01-20T04:02:30.241Z,270.91
2024-01-20T04:03:30.350Z,371.57
2024-01-20T04:04:30.416Z,584.09
2024-01-20T04:05:30.405Z,1000.00
2024-01-20T04:06:30.477Z,1000.00
2024-01-20T04:07:30.481Z,1000.00
2024-01-20T04:08:30.499Z,1000.00
2024-01-20T04:09:30.548Z,871.03
2024-01-20T04:10:30.581Z,625.87
2024-01-20T04:11:30.618Z,411.67
2024-01-20T04:12:30.770Z,272.91
2024-01-20T04:13:30.717Z,190.17
2024-01-20T04:14:30.758Z,138.26
2024-01-20T04:15:30.860Z,103.62
2024-01-20T04:16:30.881Z,76.82
2024-01-20T04:17:30.934Z,62.45
2024-01-20T04:18:31.032Z,63.17
2024-01-20T04:19:31.041Z,63.48
2024-01-20T04:20:30.992Z,57.76
2024-01-20T04:21:31.043Z,60.25
2024-01-20T04:22:31.186Z,60.87
2024-01-20T04:23:31.193Z,63.96
2024-01-20T04:24:31.303Z,67.52
2024-01-20T04:25:31.245Z,62.93
2024-01-20T04:26:31.277Z,62.52
2024-01-20T04:27:31.384Z,59.33
2024-01-20T04:28:31.355Z,48.93
2024-01-20T04:29:31.404Z,39.01
2024-01-20T04:30:31.489Z,30.63
2024-01-20T04:31:31.506Z,24.81
2024-01-20T04:32:31.540Z,21.70
2024-01-20T04:33:31.611Z,20.07
2024-01-20T04:34:32.041Z,19.30
2024-01-20T04:35:31.645Z,18.84
2024-01-20T04:36:31.705Z,19.12
2024-01-20T04:37:31.718Z,19.30
2024-01-20T04:38:31.764Z,18.80
2024-01-20T04:39:32.558Z,18.28
2024-01-20T04:40:31.903Z,16.91
2024-01-20T04:41:31.986Z,15.83
2024-01-20T04:42:32.176Z,14.70
2024-01-20T04:43:32.103Z,13.70
2024-01-20T04:44:32.532Z,12.31
2024-01-20T04:45:32.306Z,11.03
2024-01-20T04:46:32.315Z,10.40
2024-01-20T04:47:32.399Z,10.13
2024-01-20T04:48:39.944Z,0.50
2024-01-20T04:49:39.827Z,0.50
2024-01-20T04:50:39.805Z,0.50
2024-01-20T04:51:39.811Z,0.50
2024-01-20T04:52:39.801Z,0.50
2024-01-20T04:53:39.824Z,0.52
2024-01-20T04:54:39.892Z,0.51
2024-01-20T04:55:39.800Z,0.52
2024-01-20T04:56:39.800Z,0.54
2024-01-20T04:57:39.878Z,0.61
2024-01-20T04:58:39.798Z,0.70
2024-01-20T04:59:39.814Z,0.82
2024-01-20T05:00:39.924Z,0.91
2024-01-20T05:01:40.943Z,0.94
2024-01-20T05:02:39.825Z,0.93
2024-01-20T05:03:39.979Z,0.86
2024-01-20T05:04:39.865Z,0.82
2024-01-20T05:05:39.886Z,0.83
2024-01-20T05:06:39.888Z,0.87
2024-01-20T05:07:39.832Z,1.15
2024-01-20T05:08:39.877Z,1.77
2024-01-20T05:09:39.866Z,2.20
2024-01-20T05:10:39.844Z,1.89
2024-01-20T05:11:39.838Z,2.07
2024-01-20T05:12:39.895Z,1.94
2024-01-20T05:13:39.861Z,1.52
2024-01-20T05:14:39.861Z,1.21
2024-01-20T05:15:39.926Z,1.01
2024-01-20T05:16:39.868Z,0.93
2024-01-20T05:17:39.891Z,0.95
2024-01-20T05:18:40.067Z,1.15
2024-01-20T05:19:40.089Z,1.40
2024-01-20T05:20:40.042Z,1.48
2024-01-20T05:21:39.995Z,1.41
2024-01-20T05:22:40.002Z,1.28
2024-01-20T05:23:40.016Z,1.34
2024-01-20T05:24:40.089Z,1.37
2024-01-20T05:25:40.136Z,1.40
2024-01-20T05:26:40.182Z,1.41
2024-01-20T05:27:40.250Z,1.38
2024-01-20T05:28:40.323Z,1.36
2024-01-20T05:29:40.386Z,1.35
2024-01-20T05:30:40.426Z,1.44
2024-01-20T05:31:40.464Z,1.69
2024-01-20T05:32:40.695Z,1.94
2024-01-20T05:33:40.786Z,2.12
2024-01-20T05:34:40.740Z,2.11
2024-01-20T05:35:40.740Z,1.93
2024-01-20T05:36:40.783Z,1.73
2024-01-20T05:37:40.840Z,1.62
2024-01-20T05:38:40.912Z,1.80
2024-01-20T05:39:40.970Z,2.09
2024-01-20T05:40:40.999Z,2.49
2024-01-20T05:41:41.063Z,3.04
2024-01-20T05:42:41.127Z,4.23
2024-01-20T05:43:41.164Z,5.57
2024-01-20T05:44:41.268Z,6.56
2024-01-20T05:45:41.324Z,7.23
2024-01-20T05:46:41.314Z,8.10
2024-01-20T05:47:41.402Z,8.50
2024-01-20T05:48:41.573Z,7.55
2024-01-20T05:49:41.461Z,6.57
2024-01-20T05:50:41.431Z,5.97
2024-01-20T05:51:41.464Z,5.61
2024-01-20T05:52:41.493Z,5.13
2024-01-20T05:53:41.503Z,4.37
2024-01-20T05:54:41.557Z,4.08
2024-01-20T05:55:41.535Z,4.59
2024-01-20T05:56:41.603Z,4.61
2024-01-20T05:57:41.673Z,4.98
2024-01-20T05:58:41.746Z,6.65
2024-01-20T05:59:41.761Z,9.52
2024-01-20T06:00:41.966Z,13.66
2024-01-20T06:01:41.924Z,22.33
2024-01-20T06:02:42.022Z,34.17
2024-01-20T06:03:42.141Z,49.67
2024-01-20T06:04:42.069Z,64.67
2024-01-20T06:05:42.088Z,86.01
2024-01-20T06:06:42.168Z,128.51
2024-01-20T06:07:42.093Z,178.13
2024-01-20T06:08:42.126Z,216.64
2024-01-20T06:09:42.182Z,284.09
2024-01-20T06:10:42.249Z,335.94
2024-01-20T06:11:42.308Z,371.59
2024-01-20T06:12:42.335Z,415.23
2024-01-20T06:13:42.373Z,479.92
2024-01-20T06:14:42.422Z,582.29
2024-01-20T06:15:42.490Z,830.71
2024-01-20T06:16:42.516Z,1000.00
2024-01-20T06:17:42.629Z,1000.00
2024-01-20T06:18:42.683Z,1000.00
2024-01-20T06:19:42.846Z,1000.00
2024-01-20T06:20:42.736Z,1000.00
2024-01-20T06:21:42.808Z,1000.00
2024-01-20T06:22:42.840Z,1000.00
2024-01-20T06:23:42.876Z,1000.00
2024-01-20T06:24:42.897Z,1000.00
2024-01-20T06:25:42.917Z,1000.00
2024-01-20T06:26:42.955Z,1000.00
2024-01-20T06:27:43.012Z,1000.00
2024-01-20T06:28:43.123Z,1000.00
2024-01-20T06:29:43.157Z,1000.00
2024-01-20T06:30:43.221Z,902.80
2024-01-20T06:31:43.270Z,708.85
2024-01-20T06:32:43.430Z,829.78
2024-01-20T06:33:43.474Z,908.26
2024-01-20T06:34:43.542Z,776.62
2024-01-20T06:35:43.500Z,804.08
2024-01-20T06:36:43.616Z,747.05
2024-01-20T06:37:43.666Z,645.37
2024-01-20T06:38:43.683Z,689.88
2024-01-20T06:39:43.737Z,743.76
2024-01-20T06:40:43.817Z,762.60
2024-01-20T06:41:43.882Z,744.92
2024-01-20T06:42:43.891Z,590.74
2024-01-20T06:43:43.937Z,424.85
2024-01-20T06:44:44.002Z,385.65
2024-01-20T06:45:44.133Z,390.65
2024-01-20T06:46:44.083Z,342.38
2024-01-20T06:47:44.219Z,333.80
2024-01-20T06:48:44.393Z,421.87
2024-01-20T06:49:44.294Z,554.81
2024-01-20T06:50:44.249Z,725.19
2024-01-20T06:51:44.299Z,868.99
2024-01-20T06:52:44.321Z,972.46
2024-01-20T06:53:44.388Z,1000.00
2024-01-20T06:54:44.357Z,1000.00
2024-01-20T06:55:44.390Z,890.12
2024-01-20T06:56:44.421Z,844.46
2024-01-20T06:57:44.454Z,731.13
2024-01-20T06:58:44.584Z,576.50
2024-01-20T06:59:44.587Z,649.85
2024-01-20T07:00:44.809Z,760.64
2024-01-20T07:01:44.720Z,808.91
2024-01-20T07:02:44.788Z,787.16
2024-01-20T07:03:44.943Z,626.62
2024-01-20T07:04:44.878Z,514.29
2024-01-20T07:05:44.909Z,474.70
2024-01-20T07:06:45.055Z,390.51
2024-01-20T07:07:44.989Z,325.87
2024-01-20T07:08:45.059Z,294.17
2024-01-20T07:09:45.083Z,279.57
2024-01-20T07:10:45.157Z,255.42
2024-01-20T07:11:45.181Z,212.87
2024-01-20T07:12:45.327Z,182.74
2024-01-20T07:13:45.303Z,220.65
2024-01-20T07:14:45.317Z,237.08
2024-01-20T07:15:45.372Z,214.68
2024-01-20T07:16:45.402Z,209.48
2024-01-20T07:17:45.506Z,256.01
2024-01-20T07:18:45.602Z,272.14
2024-01-20T07:19:45.657Z,243.43
2024-01-20T07:20:45.625Z,212.51
2024-01-20T07:21:45.635Z,199.73
2024-01-20T07:22:45.694Z,248.00
2024-01-20T07:23:45.743Z,322.23
2024-01-20T07:24:45.787Z,385.90
2024-01-20T07:25:45.829Z,419.26
2024-01-20T07:26:45.870Z,413.08
2024-01-20T07:27:45.878Z,327.77
2024-01-20T07:28:45.906Z,286.02
2024-01-20T07:29:45.950Z,303.72
2024-01-20T07:30:46.016Z,285.22
2024-01-20T07:31:46.084Z,324.28
2024-01-20T07:32:46.158Z,438.98
2024-01-20T07:33:46.261Z,481.06
2024-01-20T07:34:46.277Z,490.77
2024-01-20T07:35:46.280Z,396.11
2024-01-20T07:36:46.434Z,393.51
2024-01-20T07:37:46.417Z,388.81
2024-01-20T07:38:46.502Z,396.83
2024-01-20T07:39:46.568Z,373.22
2024-01-20T07:40:46.626Z,373.31
2024-01-20T07:41:46.688Z,440.40
2024-01-20T07:42:46.724Z,520.21
2024-01-20T07:43:46.849Z,571.38
2024-01-20T07:44:46.906Z,589.10
2024-01-20T07:45:47.034Z,494.94
2024-01-20T07:46:47.034Z,410.60
2024-01-20T07:47:47.133Z,315.99
2024-01-20T07:48:47.479Z,254.41
2024-01-20T07:49:47.345Z,229.57
2024-01-20T07:50:47.250Z,221.96
2024-01-20T07:51:47.304Z,191.63
2024-01-20T07:52:47.382Z,162.57
2024-01-20T07:53:47.441Z,126.30
2024-01-20T07:54:47.478Z,95.61
2024-01-20T07:55:47.510Z,77.43
2024-01-20T07:56:47.553Z,68.90
2024-01-20T07:57:47.623Z,76.15
2024-01-20T07:58:47.689Z,93.81
2024-01-20T07:59:47.748Z,121.60
2024-01-20T08:00:47.849Z,152.34
2024-01-20T08:01:47.788Z,188.47
2024-01-20T08:02:47.830Z,225.71
2024-01-20T08:03:47.949Z,284.99
2024-01-20T08:04:47.905Z,353.04
2024-01-20T08:05:47.972Z,379.29
2024-01-20T08:06:48.094Z,394.84
2024-01-20T08:07:48.062Z,426.21
2024-01-20T08:08:48.110Z,446.68
2024-01-20T08:09:48.134Z,380.02
2024-01-20T08:10:48.193Z,409.99
2024-01-20T08:11:48.240Z,451.95
2024-01-20T08:12:48.248Z,495.30
2024-01-20T08:13:48.290Z,561.57
2024-01-20T08:14:48.323Z,615.85
2024-01-20T08:15:48.403Z,600.20
2024-01-20T08:16:48.394Z,581.41
2024-01-20T08:17:48.434Z,488.27
2024-01-20T08:18:48.568Z,413.85
2024-01-20T08:19:48.609Z,371.57
2024-01-20T08:20:48.561Z,291.67
2024-01-20T08:21:48.633Z,280.30
2024-01-20T08:22:48.698Z,253.19
2024-01-20T08:23:48.771Z,254.70
2024-01-20T08:24:48.888Z,248.11
2024-01-20T08:25:48.896Z,212.38
2024-01-20T08:26:49.342Z,202.85
2024-01-20T08:27:49.010Z,191.40
2024-01-20T08:28:49.070Z,190.35
2024-01-20T08:29:49.125Z,184.37
2024-01-20T08:30:49.238Z,171.06
2024-01-20T08:31:49.195Z,165.37
2024-01-20T08:32:49.325Z,161.24
2024-01-20T08:33:49.470Z,159.09
2024-01-20T08:34:49.390Z,174.67
2024-01-20T08:35:49.427Z,200.96
2024-01-20T08:36:49.484Z,233.21
2024-01-20T08:37:49.549Z,268.95
2024-01-20T08:38:49.618Z,291.82
2024-01-20T08:39:49.634Z,304.80
2024-01-20T08:40:49.717Z,305.47
2024-01-20T08:41:49.860Z,295.99
2024-01-20T08:42:49.834Z,293.70
2024-01-20T08:43:49.901Z,285.84
2024-01-20T08:44:49.978Z,290.57
2024-01-20T08:45:50.004Z,287.83
2024-01-20T08:46:50.037Z,286.32
2024-01-20T08:47:50.080Z,278.91
2024-01-20T08:48:50.164Z,268.88
2024-01-20T08:49:50.162Z,277.13
2024-01-20T08:50:50.193Z,258.03
2024-01-20T08:51:50.229Z,243.06
2024-01-20T08:52:50.312Z,231.60
2024-01-20T08:53:50.340Z,213.26
2024-01-20T08:54:50.438Z,189.71
2024-01-20T08:55:50.461Z,165.70
2024-01-20T08:56:50.510Z,139.51
2024-01-20T08:57:50.578Z,120.84
2024-01-20T08:58:50.620Z,97.31
2024-01-20T08:59:50.682Z,86.48
2024-01-20T09:00:50.828Z,67.28
2024-01-20T09:01:50.780Z,55.64
2024-01-20T09:02:50.844Z,49.93
2024-01-20T09:03:50.930Z,45.96
2024-01-20T09:04:50.869Z,40.80
2024-01-20T09:05:50.900Z,32.10
2024-01-20T09:06:50.974Z,26.35
2024-01-20T09:07:50.942Z,22.82
2024-01-20T09:08:50.945Z,21.06
2024-01-20T09:09:50.959Z,19.48
2024-01-20T09:10:51.022Z,18.10
2024-01-20T09:11:51.075Z,19.37
2024-01-20T09:12:51.117Z,21.75
2024-01-20T09:13:51.173Z,26.83
2024-01-20T09:14:51.285Z,29.64
2024-01-20T09:15:51.397Z,32.29
2024-01-20T09:16:51.413Z,31.08
2024-01-20T09:17:51.446Z,28.50
2024-01-20T09:18:52.006Z,26.15
2024-01-20T09:19:51.640Z,25.87
2024-01-20T09:20:51.505Z,28.43
2024-01-20T09:21:51.530Z,27.56
2024-01-20T09:22:51.584Z,21.95
2024-01-20T09:23:51.618Z,19.15
2024-01-20T09:24:51.664Z,17.39
2024-01-20T09:25:51.700Z,15.65
2024-01-20T09:26:51.731Z,14.20
2024-01-20T09:27:51.785Z,13.10
2024-01-20T09:28:51.870Z,11.30
2024-01-20T09:29:51.877Z,10.45
2024-01-20T09:30:51.908Z,9.26
2024-01-20T09:31:51.934Z,8.79
2024-01-20T09:32:52.038Z,8.85
2024-01-20T09:33:52.124Z,10.11
2024-01-20T09:34:52.046Z,10.89
2024-01-20T09:35:52.041Z,11.35
2024-01-20T09:36:52.063Z,11.92
2024-01-20T09:37:52.083Z,11.16
2024-01-20T09:38:52.055Z,9.89
2024-01-20T09:39:52.106Z,9.12
2024-01-20T09:40:52.164Z,8.32
2024-01-20T09:41:52.143Z,7.38
2024-01-20T09:42:52.187Z,7.24
2024-01-20T09:43:52.260Z,6.55
2024-01-20T09:44:52.307Z,5.84
2024-01-20T09:45:52.403Z,5.86
2024-01-20T09:46:52.471Z,5.36
2024-01-20T09:47:52.619Z,5.27
2024-01-20T09:48:52.693Z,5.37
2024-01-20T09:49:52.693Z,4.88
2024-01-20T09:50:52.663Z,4.45
2024-01-20T09:51:52.743Z,3.87
2024-01-20T09:52:52.813Z,3.33
2024-01-20T09:53:52.844Z,2.92
2024-01-20T09:54:52.897Z,2.75
2024-01-20T09:55:52.958Z,2.84
2024-01-20T09:56:53.000Z,2.54
2024-01-20T09:57:53.045Z,2.21
2024-01-20T09:58:53.078Z,1.89
2024-01-20T09:59:53.112Z,1.50
2024-01-20T10:00:53.225Z,1.29
2024-01-20T10:01:53.220Z,1.05
2024-01-20T10:02:53.340Z,0.86
2024-01-20T10:03:53.382Z,0.72
2024-01-20T10:04:53.418Z,0.70
2024-01-20T10:05:53.559Z,0.62
2024-01-20T10:06:53.505Z,0.50
2024-01-20T10:07:53.539Z,0.50
2024-01-20T10:08:53.587Z,0.51
2024-01-20T10:09:53.609Z,0.50
2024-01-20T10:10:53.604Z,0.50
2024-01-20T10:11:53.644Z,0.50
2024-01-20T10:12:53.689Z,0.52
2024-01-20T10:13:53.720Z,0.53
2024-01-20T10:14:53.775Z,0.55
2024-01-20T10:15:53.893Z,0.58
2024-01-20T10:16:53.905Z,0.61
2024-01-20T10:17:53.973Z,0.59
2024-01-20T10:18:54.030Z,0.53
2024-01-20T10:19:53.986Z,0.55
2024-01-20T10:20:54.007Z,0.59
2024-01-20T10:21:54.029Z,0.73
2024-01-20T10:22:54.116Z,0.92
2024-01-20T10:23:54.073Z,0.98
2024-01-20T10:24:54.060Z,0.94
2024-01-20T10:25:54.114Z,0.88
2024-01-20T10:26:54.141Z,0.82
2024-01-20T10:27:54.170Z,0.70
2024-01-20T10:28:54.182Z,0.60
2024-01-20T10:29:54.189Z,0.51
2024-01-20T10:30:54.293Z,0.51
2024-01-20T10:31:54.277Z,0.49
2024-01-20T10:33:04.124Z,0.50
2024-01-20T10:33:55.389Z,0.46
2024-01-20T10:34:54.412Z,0.39
2024-01-20T10:35:54.355Z,0.32
2024-01-20T10:36:54.331Z,0.31
2024-01-20T10:37:54.314Z,0.33
2024-01-20T10:38:54.318Z,0.41
2024-01-20T10:39:54.349Z,0.48
2024-01-20T10:40:54.374Z,0.45
2024-01-20T10:41:54.330Z,0.51
2024-01-20T10:42:55.725Z,0.48
2024-01-20T10:43:54.433Z,0.50
2024-01-20T10:44:54.456Z,0.50
2024-01-20T10:45:54.553Z,0.50
2024-01-20T10:46:54.555Z,0.50
2024-01-20T10:47:54.725Z,0.51
2024-01-20T10:48:54.897Z,0.54
2024-01-20T10:49:54.846Z,0.63
2024-01-20T10:50:54.759Z,0.66
2024-01-20T10:51:54.891Z,0.69
2024-01-20T10:52:54.872Z,0.67
2024-01-20T10:53:54.901Z,0.62
2024-01-20T10:54:54.948Z,0.61
2024-01-20T10:55:55.027Z,0.66
2024-01-20T10:56:55.065Z,0.58
2024-01-20T10:57:55.092Z,0.50
2024-01-20T10:58:55.149Z,0.50
2024-01-20T10:59:55.184Z,0.50
2024-01-20T11:00:55.382Z,0.50
2024-01-20T11:01:55.271Z,0.52
2024-01-20T11:02:55.334Z,0.54
2024-01-20T11:03:55.474Z,0.53
2024-01-20T11:04:55.422Z,0.51
2024-01-20T11:05:55.478Z,0.51
2024-01-20T11:06:55.519Z,0.50
2024-01-20T11:07:55.487Z,0.51
2024-01-20T11:08:55.573Z,0.50
2024-01-20T11:09:55.605Z,0.53
2024-01-20T11:10:55.714Z,0.59
2024-01-20T11:11:55.732Z,0.62
2024-01-20T11:12:55.776Z,0.57
2024-01-20T11:13:55.843Z,0.56
2024-01-20T11:14:55.878Z,0.49
2024-01-20T11:15:55.927Z,0.50
2024-01-20T11:16:55.955Z,0.50
2024-01-20T11:17:56.062Z,0.47
2024-01-20T11:18:56.126Z,0.49
2024-01-20T11:19:56.174Z,0.50
2024-01-20T11:20:56.187Z,0.49
2024-01-20T11:21:56.181Z,0.51
2024-01-20T11:22:56.208Z,0.50
2024-01-20T11:23:56.207Z,0.52
2024-01-20T11:24:56.347Z,0.50
2024-01-20T11:25:56.276Z,0.50
2024-01-20T11:26:56.290Z,0.51
2024-01-20T11:27:56.334Z,0.51
2024-01-20T11:28:56.389Z,0.50
2024-01-20T11:29:56.381Z,0.52
2024-01-20T11:30:56.463Z,0.52
2024-01-20T11:31:56.391Z,0.52
2024-01-20T11:32:56.541Z,0.50
2024-01-20T11:33:56.576Z,0.51
2024-01-20T11:34:56.490Z,0.50
2024-01-20T11:35:56.562Z,0.53
2024-01-20T11:36:56.599Z,0.54
2024-01-20T11:37:56.622Z,0.55
2024-01-20T11:38:56.661Z,0.53
2024-01-20T11:39:56.700Z,0.50
2024-01-20T11:40:56.750Z,0.50
2024-01-20T11:41:56.826Z,0.51
2024-01-20T11:42:56.863Z,0.50
2024-01-20T11:43:56.872Z,0.52
2024-01-20T11:44:56.969Z,0.51
2024-01-20T11:45:56.983Z,0.53
2024-01-20T11:46:56.992Z,0.50
2024-01-20T11:47:57.096Z,0.50
2024-01-20T11:48:57.124Z,0.51
2024-01-20T11:49:57.104Z,0.52
2024-01-20T11:50:57.199Z,0.52
2024-01-20T11:51:57.138Z,0.52
2024-01-20T11:52:57.174Z,0.53
2024-01-20T11:53:57.246Z,0.51
2024-01-20T11:54:57.249Z,0.52
2024-01-20T11:55:57.280Z,0.50
2024-01-20T11:56:57.377Z,0.50
2024-01-20T11:57:57.346Z,0.49
2024-01-20T11:58:57.380Z,0.50
2024-01-20T11:59:57.443Z,0.50
2024-01-20T12:00:57.492Z,0.50
2024-01-20T12:01:57.485Z,0.50
2024-01-20T12:02:57.563Z,0.50
2024-01-20T12:03:57.554Z,0.50
2024-01-20T12:05:02.260Z,0.51
2024-01-20T12:05:58.673Z,0.49
2024-01-20T12:06:57.625Z,0.45
2024-01-20T12:07:57.594Z,0.41
2024-01-20T12:08:57.647Z,0.40
2024-01-20T12:09:57.561Z,0.41
2024-01-20T12:10:57.564Z,0.51
2024-01-20T12:11:57.603Z,0.50
2024-01-20T12:12:57.554Z,0.53
2024-01-20T12:13:57.564Z,0.54
2024-01-20T12:14:57.651Z,0.49
2024-01-20T12:15:57.585Z,0.51
2024-01-20T12:16:57.574Z,0.50
2024-01-20T12:17:57.687Z,0.50
2024-01-20T12:18:57.657Z,0.50
2024-01-20T12:19:57.677Z,0.50
2024-01-20T12:20:57.657Z,0.51
2024-01-20T12:21:57.689Z,0.50
2024-01-20T12:22:57.742Z,0.51
2024-01-20T12:23:57.841Z,0.50
2024-01-20T12:24:57.835Z,0.50
2024-01-20T12:25:57.895Z,0.50
2024-01-20T12:26:57.985Z,0.50
2024-01-20T12:27:58.011Z,0.51
2024-01-20T12:28:58.059Z,0.52
2024-01-20T12:29:58.114Z,0.50
2024-01-20T12:30:58.164Z,0.50
2024-01-20T12:31:58.190Z,0.53
2024-01-20T12:32:58.411Z,0.64
2024-01-20T12:33:58.298Z,0.83
2024-01-20T12:34:58.294Z,0.94
2024-01-20T12:35:58.444Z,1.07
2024-01-20T12:36:58.348Z,1.61
2024-01-20T12:37:58.399Z,4.24
2024-01-20T12:38:58.479Z,10.10
2024-01-20T12:39:58.476Z,13.82
2024-01-20T12:40:58.519Z,15.10
2024-01-20T12:41:58.610Z,15.48
2024-01-20T12:42:58.596Z,14.64
2024-01-20T12:43:58.620Z,16.81
2024-01-20T12:44:58.666Z,18.08
2024-01-20T12:45:58.648Z,24.53
2024-01-20T12:46:58.692Z,39.36
2024-01-20T12:47:58.883Z,42.17
2024-01-20T12:48:58.835Z,27.92
2024-01-20T12:49:58.858Z,18.94
2024-01-20T12:50:58.902Z,14.28
2024-01-20T12:51:58.902Z,11.57
2024-01-20T12:52:58.968Z,9.71
2024-01-20T12:53:59.053Z,8.21
2024-01-20T12:54:59.039Z,7.26
2024-01-20T12:55:59.072Z,5.86
2024-01-20T12:56:59.132Z,5.01
2024-01-20T12:57:59.122Z,4.54
2024-01-20T12:58:59.181Z,3.80